Timeline UpdatesTrip UpdatesNews PostsPvt Posts♥♥Travel TipsAdmin PostsConv PostsFollowed PostsChat RequestsBlog PostsPNR Posts

Disclaimer
Search
 
 
Thu Oct 23, 2014 15:40:03 ISTHomeTrainsΣChainsAtlasPNRForumGalleryNewsFAQTripsMembersLoginFeedback
No Recent News for this Train
Other Trains in the News **new
Latest...
Randomly augmented with either a 3AC, 2AC or 1AC extra coach daily !!
Sun Feb 16, 2014 (11:59AM)
⇐ Return Journey: Train# 12954

12953/August Kranti Rajdhani Express

NO Time-Table Change.
Sep 01 2014 (11:38PM)
Change Departure Station:
Change Arrival Station:
Post a Train Travel TipPost a Train Travel Tip **new
Post a Comment/Question/Picture/VideoPost a Comment/Question/Picture/Video
Inaugural Run
Wed Jan 01, 1992
Pantry/Catering
✓ Pantry Car Avbl
✓ Catering Avbl
Catering options provided to the passengers of the August Kranti...
Read more...
Rajdhani Express to NZM; BCT-NZM - EBF+ET+D+MBF+MT; BCT-VAPI/BL - EBF+ET; BCT-ST/BH/BRC/RTM/NAD/KOTA/NZM - EBF+ET+D; VAPI/BL/ST/BH/BRC-NZM - D+MT+MBF; RTM/NAD/KOTA/SWM-NZM - MT+MBF; MTJ-NZM - MT; Abbrevations:-; EBF - Evening Breakfast; ET - Evening Tea / Coffee; D - Dinner; MBF - Morning Breakfast; MT - Morning Tea / Coffee
RSA - Rake Sharing
12951/12952 Rajdhani Express
Rake/Coach Composition
LOCO ---> EOG-B1-B2-B3-B4-B5-B6-B7-PC1-B8-B9-B10-A1-A2-A3-A4-A5-PC2-H1-EOG.
Loco
WAP-7 of Ghaziabad shed (NR).
News    PNR    Forum    Time-Table    Availability    Fare Chart    Map    Arr/Dep History    Trips    Gallery    ΣChains    X/O    Timeline    
Travel Time: 2h 32m    0 halts    Distance: 217 km    Avg Speed: 85 km/hr
Type: Rajdhani
Zone: WR/Western
Departs @ 06:28 (Avg 16m late)
Platform# 1
SMTWTFS
Sawai Madhopur Junction/SWM 
Arrives @ 09:00 (Avg 2m early)
Platform# 3
SMTWTFS
Mathura Junction/MTJ 

0 halts. 29 intermediate Stations between Sawai Madhopur Junction and Mathura Junction

Hide intermediate Stations  

#TrkCodeStation NameX/OArrivesAvgDepartsAvgHaltPFDay#KmSpeedElevZoneAddress
1/==/BCTMumbai Central (9)  -17:40+011-1027.7493mWRMumbai 400008, Maharashtra
1.1/==/MXMumbai Mahalakshmi (2)  17:42-17:42-  1-1026.4 493mWRMumbai, Maharashtra
1.2/==/PLMumbai Lower Parel (3)  17:44-17:44-  1-1024.8 495mWRMumbai, Maharashtra
1.3/==/EPRMumbai Elphinstone Road (2)  17:45-17:45-  1-1023.3 494mWRMumbai, Maharashtra
1.4/==/DDRMumbai Dadar Western (6)  17:47-17:47-  1-1021.8 496mWRMumbai, Maharashtra
1.5/==/MRUMumbai Matunga Road (2)  17:49-17:49-  1-1020.5 497mWRMumbai, Maharashtra
1.6/==/MMMumbai Mahim Junction (6)  17:50-17:50-  1-1019.3 495mWRMumbai, Maharashtra
1.7/==/BABandra (7)  17:52-17:52-  1-1017.6 496mWRMumbai, Maharashtra
1.8/==/BDTSMumbai Bandra Terminus (5)  17:53-17:53-  1-1016.8 494mWRMumbai 400050, Maharashtra
1.9/==/KHARKhar (6)  17:54-17:54-  1-1016.0 497mWRMumbai, Maharashtra
1.10/==/STCSanta Cruz (6)X  17:56-17:56-  1-1014.5 4910mWRMumbai, Maharashtra
1.11/==/VLPVille Parle (6)  17:59-17:59-  1-1012.6 4911mWRMumbai, Maharashtra
2/==/ADHMumbai Andheri (9)  18:01+418:03+32m41-1010.65412mWRMumbai, Maharashtra
2.1/==/JOSJogeshwari (4)  18:05-18:05-  1-1008.5 5414mWRMumbai, Maharashtra
2.2/==/GMNGoregaon (5)  18:09-18:09-  1-1005.3 5415mWRMumbai - 400104, Maharashtra
2.3/==/MDDMalad (4)X  18:12-18:12-  1-1002.9 5418mWRMumbai-400064, Maharashtra
2.4/==/KILEKandivli (4)O  18:14-18:14-  1-1000.8 5414mWRMumbai, Maharashtra
3/==/BVIMumbai Borivali (8)  18:17+418:19+42m41-998.19419mWRMumbai - 400092, Maharashtra
3.1/==/DICDahisar (4)  18:20-18:20-  1-995.8 9414mWRMumbai, Maharashtra
3.2/==/MIRAMira Road (4)  18:23-18:23-  1-992.3 943mWRMira Bhayandar, Maharashtra
3.3/==/BYRBhayandar (6)X  18:25-18:25-  1-989.1 946mWRThane, Maharashtra
3.4/==/NIGNaigaon (4)  18:28-18:28-  1-984.4 945mWRNaigaon West, Maharashtra
3.5/==/BSRVasai Road (7)X  18:30-18:30-  1-980.7 947mWRVasai 401202, Maharashtra
3.6/==/NSPNallasopara (4)  18:33-18:33-  1-976.4 945mWRNallasopara station Rd, Maharashtra
3.7/==/VRVirar (8)  18:35-18:35-  1-972.2 946mWRDist. Palghar, Maharashtra
3.8/==/VTNVaitarna (2)  18:41-18:41-  1-963.7 943mWRDist. Palghar, Maharashtra
3.9/==/SAHSaphale (2)X  18:46-18:46-  1-955.9 948mWRDist. Palghar, Maharashtra
3.10/==/KLVKelve Road (3)X  18:50-18:50-  1-949.5 9410mWRDist. Palghar, Maharashtra
3.11/==/PLGPalghar (3)  18:55-18:55-  1-941.1 9419mWRPalghar, Maharashtra
3.12/==/UOIUmroli (2)X  18:59-18:59-  1-934.7 948mWRBoisar, Maharashtra
3.13/==/BORBoisar (3)X  19:02-19:02-  1-929.8 9417mWRBoisar Tel.no-02525-266626, Maharashtra
3.14/==/VGNVangaon (3)X  19:08-19:08-  1-920.4 9411mWRDist. Palghar, Maharashtra
3.15/==/DRDDahanu Road (5)  19:16-19:16-  1-908.1 9412mWRDahanu, Maharashtra
3.16/==/GVDGholvad (4)O  19:23-19:23-  1-897.0 9414mWRGholvad, Maharashtra
3.17/==/BRRDBordi Road (2)X  19:26-19:26-  1-892.1 9417mWRBordi, Maharashtra
3.18/==/UBRUmbargam Road (3)X  19:29-19:29-  1-887.8 9430mWRUmbergaon, Gujarat
3.19/==/SJNSanjan (3)  19:32-19:32-  1-882.4 9422mWRSanjan, Gujarat
3.20/==/BLDBhilad (3)O  19:40-19:40-  1-870.9 9433mWRBhilad, Gujarat
3.21/==/KEBKarambeli (2)  19:43-19:43-  1-866.0 9429mWRNational Highway 8, Gujarat
4/==/VAPIVapi (3)X  19:47+519:49+52m11-859.67927mWRVapi, Gujarat
4.1/==/BAGDBagwada (2)  19:54-19:54-  1-852.9 7922mWRNH8, Gujarat
4.2/==/UVDUdvada (3)  19:56-19:56-  1-850.0 7918mWRUdvada, Gujarat
4.3/==/PADPardi (3)  20:01-20:01-  1-844.0 7919mWRValsad, Gujarat
4.4/==/ATULAtul (3)X  20:04-20:04-  1-840.0 7922mWRValsad, Gujarat
5/==/BLValsad (3)X  20:09+420:11+42m21-833.38615mWRValsad, Gujarat
5.1/==/DGIDungri (3)X  20:17-20:17-  1-824.4 8620mWRNH 8, Gujarat
5.2/==/JRSJoravasan (2)X  20:21-20:21-  1-819.4 8615mWRJoravasan, Gujarat
5.3/==/BIMBilimora Junction (4)  20:24-20:24-  1-815.4 8611mWRBilimora, Gujarat
5.4/==/AMLAmalsad (3)X  20:27-20:27-  1-809.8 8612mWRAmalsad, Gujarat
5.5/==/ACLAncheli (2)O  20:30-20:30-  1-806.0 8620mWRNavsari, Gujarat
5.6/==/VDHVedchha (3)  20:32-20:32-  1-802.7 8613mWRNavsari, Gujarat
5.7/==/HXRHansapore (2)  20:35-20:35-  1-798.8 8615mWRHansapore, Gujarat
5.8/==/GNSTGandhi Smriti (2)  20:36-20:36-  1-797.2 8616mWRGandhi Smriti Navsari, Gujarat
5.9/==/NVSNavsari (3)X  20:38-20:38-  1-794.2 8614mWRNavsari, Gujarat
5.10/==/MRLMaroli (3)  20:44-20:44-  1-785.8 8615mWRMaroli, Gujarat
5.11/==/SCHSachin (3)  20:49-20:49-  1-779.1 8611mWRKansad Road Sachin, Gujarat
5.12/==/BHETBhestan (2)  20:53-20:53-  1-773.4 8613mWRSurat, Gujarat
5.13/==/UDNUdhna Junction (3)  20:56-20:56-  1-768.6 8616mWRUdhna 394210, Gujarat
6/==/STSurat (4)XO  20:59+021:04+05m11-764.69119mWRSurat 395001, Gujarat
6.1/==/URNUtran (3)  21:07-21:07-  1-760.8 9115mWRSurat, Gujarat
6.2/==/KSEKosad (2)  21:09-21:09-  1-757.6 9117mWRSurat, Gujarat
6.3/==/GTXGothangam (2)  21:11-21:11-  1-753.9 9119mWRAmroli Sayan Rd, Gujarat
6.4/==/SYNSayan (3)  21:13-21:13-  1-750.9 9121mWRSayan Satellite town, Gujarat
6.5/==/KDSDKudsad (2)  21:18-21:18-  1-743.8 9118mWRNH 8, Gujarat
6.6/==/KIMKim (2)X  21:20-21:20-  1-741.0 9118mWRNH 8, Gujarat
6.7/==/KSBKosamba Junction (3)X  21:25-21:25-  1-733.2 9130mWRKosamba, Gujarat
6.8/==/HATHathuran (2)  21:28-21:28-  1-728.9 9132mWRKosamba, Gujarat
6.9/==/PAOPanoli (3)  21:30-21:30-  1-725.0 9129mWRPanoli, Gujarat
6.10/==/SNJLSanjali (2)  21:33-21:33-  1-720.8 9123mWRSanjali, Gujarat
6.11/==/AKVAnkleshwar Junction (4)X  21:37-21:37-  1-714.7 9119mWRAnkleshwar, Gujarat
7/==/BHBharuch Junction (5)O  21:43+921:45+92m31-705.48519mWRBharuch, Gujarat
7.1/==/CVJChavaj (2)X  21:49-21:49-  1-700.3 8520mWRBharuch, Gujarat
7.2/==/NIUNabipur (3)O  21:54-21:54-  1-693.3 8524mWRNabipur, Gujarat
7.3/==/VREVarediya (4)O  21:58-21:58-  1-686.5 8521mWRNH 8, Gujarat
7.4/==/PLJPalej (4)  22:03-22:03-  1-679.9 8529mWRPalej, Gujarat
7.5/==/LKDLakodara (4)X  22:08-22:08-  1-672.7 8526mWRNH 8, Gujarat
7.6/==/MYGLMiyagam Karjan Junction NGX  22:14-22:14-  1-664.7 850mWRKarjan, Gujarat
7.7/==/MYGMiyagam Karjan (2)XO  22:14-22:14-  1-664.7 8529mWRKarjan, Gujarat
7.8/==/KSPRKashipura Sarar (2)  22:19-22:19-  1-656.9 8526mWRGIDC Industrial Area, Gujarat
7.9/==/ITAItola (4)X  22:22-22:22-  1-653.1 8527mWRNational Highway 8 Vadodara, Gujarat
7.10/==/VRMVarnama (2)  22:25-22:25-  1-649.1 8528mWRVadodara, Gujarat
7.11/==/MPRMakarpura (4)X  22:29-22:29-  1-643.5 8530mWRVadodara, Gujarat
7.12/==/VSVishvamitri (4)  22:33-22:33-  1-637.8 8530mWRVadodara, Gujarat
8/==/BRCVadodara Junction (7)X  22:35+1022:45+910m21-634.87336mWRVadodara 390005, Gujarat
8.1/==/BRGYVadodara D Cabin  22:45-22:45-  1-634.2 7336mWRVadodara, Gujarat
8.2/==/BRGZVadodara E Cabin  22:50-22:50-  1-628.3 7339mWRVadodara, Gujarat
8.3/==/CYIChhayapuri (2)X  22:51-22:51-  1-627.2 7341mWRNE 1, Gujarat
8.4/==/PIOPilol (2)  22:57-22:57-  1-620.6 7344mWRManjusar, Gujarat
8.5/==/AIRAlindra Road (2)XO  23:02-23:02-  1-614.0 7345mWRAlindra, Gujarat
8.6/==/SMLASamlaya Junction (3)X  23:07-23:07-  1-608.2 7367mWRVadodara, Gujarat
8.7/==/LANLotana  23:11-23:11-  1-602.9 7378mWRSH 150, Gujarat
8.8/==/CPNChampaner Road JunctionX  23:16-23:16-  1-597.0 7378mWRPanchmahal, Gujarat
8.9/==/BKRLBakrol  23:21-23:21-  1-591.0 7376mWRState Highway 5, Gujarat
8.10/==/DRLDerol  23:26-23:26-  1-584.5 7381mWRKalol, Gujarat
8.11/==/KRSAKharsaliya (2)X  23:37-23:37-  1-571.8 73107mWRPanchmahal, Gujarat
8.12/==/GDAGodhra Junction (3)  23:45-23:45-  1-560.9 73122mWRGodhra, Gujarat
8.13/==/KIZKansudhi  23:49-23:49-  1-556.4 73138mWRGodhra, Gujarat
8.14/==/CCLChanchelav  23:55-23:55-  1-549.5 73168mWRNH 59, Gujarat
8.15/==/SATSant Road (2)  00:02-00:02-  2-540.6 73169mWROrwara, Gujarat
8.16/==/PPDPiplod Junction  00:12-00:12-  2-528.7 73209mWRPiplod, Gujarat
8.17/==/LMKLimkhedaX  00:18-00:18-  2-520.8 73205mWRLimkheda, Gujarat
8.18/==/MAMMangal Mahudi (2)X  00:25-00:25-  2-512.2 73248mWRDabhada, Gujarat
8.19/==/USRAUsra (2)X  00:31-00:31-  2-505.6 73299mWRMangal Mahudi, Gujarat
8.20/==/JKTJekotX  00:37-00:37-  2-498.2 73345mWRDahod, Gujarat
8.21/==/RETRentia  00:41-00:41-  2-492.8 73342mWRDahod, Gujarat
8.22/==/DHDDahod (3)X  00:45-00:45-  2-487.8 73313mWRDahod, Gujarat
8.23/==/DHMADhamardaX  00:49-00:49-  2-483.0 73285mWRDahod, Gujarat
8.24/==/BIOBordi (2)X  00:54-00:54-  2-477.2 73289mWRNational Highway 59, Gujarat
8.25/==/ANASAnas (2)  01:00-01:00-  2-469.3 73288mWRMadhya Pradesh 389154 ?, Madhya Pradesh
8.26/==/NRHNahargarhX  01:08-01:08-  2-460.5 73304mWRNahargarh, Madhya Pradesh
8.27/==/MGNMeghnagar (3)X  01:12-01:12-  2-454.7 73317mWRJhabua, Madhya Pradesh
8.28/==/THDRThandla Road (2)  01:19-01:19-  2-446.7 73317mWRJhabua, Madhya Pradesh
8.29/==/BJGBajrangarh (2)  01:25-01:25-  2-439.8 73343mWRJhabua, Madhya Pradesh
8.30/==/PCNPanch Pipila (2)X  01:30-01:30-  2-432.8 73369mWRSH 39A, Madhya Pradesh
8.31/==/AGRAmargarh (2)  01:38-01:38-  2-423.3 73410mWRSH 39A, Madhya Pradesh
8.32/==/BMIBamnia (2)  01:41-01:41-  2-419.2 73392mWRBamnia, Madhya Pradesh
8.33/==/BOGBhairongarh (2)X  01:46-01:46-  2-413.2 73374mWRBhairongarh Railway Station, Madhya Pradesh
8.34/==/RTIRaoti (2)  01:56-01:56-  2-401.3 73409mWRState Highway 39A, Madhya Pradesh
8.35/==/BILDBildi (2)X  02:02-02:02-  2-394.2 73422mWRMadhya Pradesh, Madhya Pradesh
8.36/==/MRNMorwani (2)X  02:09-02:09-  2-385.2 73459mWRDantoda, Madhya Pradesh
8.37/==/DRRNDr. RK Nagar  02:14-02:14-  2-379.3 73473mWRDholawad Road, Madhya Pradesh
8.38/==/RTDRatlam A Cabin  02:17-02:17-  2-375.6 73490mWRRatlam, Madhya Pradesh
9/==/RTMRatlam Junction (7)X  02:18+1102:20+122m52-374.450495mWRRatlam, Madhya Pradesh
9.1/==/RTLMRatlam  02:20-02:20-  2-374.4 50495mWRRatlam, Madhya Pradesh
9.2/==/RTMERatlam East CabinX  02:24-02:24-  2-371.3 50496mWRRatlam, Madhya Pradesh
9.3/==/BODBangrod  02:32-02:32-  2-364.6 50484mWRRatlam, Madhya Pradesh
9.4/==/RNHRunkhera  02:41-02:41-  2-357.3 50478mWRUjjain, Madhya Pradesh
9.5/==/KUHKhachrod (2)  02:53-02:53-  2-346.8 50497mWRUjjain, Madhya Pradesh
9.6/==/BRNABerawanyaX  03:00-03:00-  2-341.1 50496mWRUjjain, Madhya Pradesh
10/==/NADNagda Junction (4)XO  03:10-203:12+22m--2-333.0114468mWRNagda, Madhya Pradesh
10.1/==/RLKRohal Khurd  03:17-03:17-  2-322.5 114499mWCRNagda, Madhya Pradesh
10.2/==/MEPMahidpur RoadX  03:21-03:21-  2-315.9 114493mWCRGogapur, Madhya Pradesh
10.3/==/LNRLuni RichhaX  03:27-03:27-  2-305.3 114471mWCRAlote, Madhya Pradesh
10.4/==/VMAVikramgarh Alot (2)X  03:33-03:33-  2-292.0 114443mWCRKota Division, Madhya Pradesh
10.5/==/THURThuriaX  03:37-03:37-  2-284.4 114430mWCRMDR 45, Madhya Pradesh
10.6/==/TLZTalavli (2)  03:42-03:42-  2-275.4 114442mWCRMDR 45, Madhya Pradesh
10.7/==/CMUChau Mahla (3)  03:45-03:45-  2-270.2 114426mWCRJhalawar, Rajasthan
10.8/==/NKHNathukheri  03:50-03:50-  2-260.5 114439mWCRMDR 45, Madhya Pradesh
10.9/==/SVASuwasra (2)  03:53-03:53-  2-254.8 114450mWCRSuwasra, Madhya Pradesh
10.10/==/HNUHanspuraO  03:57-03:57-  2-248.1 114476mWCRMandsaur, Madhya Pradesh
10.11/==/SGZShamgarh (3)  04:00-04:00-  2-241.4 114463mWCRMandsaur, Madhya Pradesh
10.12/==/GOHGaroth (2)O  04:06-04:06-  2-230.6 114441mWCRMadhya Pradesh 458880, Madhya Pradesh
10.13/==/KRLSKurlasX  04:11-04:11-  2-220.8 114417mWCRGarot, Madhya Pradesh
10.14/==/BWMBhawani Mandi (3)  04:18-04:18-  2-207.9 114384mWCRBhawani Mandi, Madhya Pradesh
10.15/==/DKRADhuankheriX  04:23-04:23-  2-197.8 114358mWCRBhawani Mandi, Madhya Pradesh
10.16/==/JHWJhalawar Road (3)X  04:26-04:26-  2-191.4 114361mWCRJhalawar City, Rajasthan
10.17/==/RMARamganj Mandi Junction (3)  04:33-04:33-  2-179.1 114358mWCRRamganj Mandi, Rajasthan
10.18/==/MKXMorak (2)  04:37-04:37-  2-170.0 114337mWCRMorak, Rajasthan
10.19/==/KIWKanwalpuraX  04:40-04:40-  2-164.2 114324mWCRNH 12, Rajasthan
10.20/==/DARADara  04:45-04:45-  2-155.3 114354mWCRDara, Rajasthan
10.21/==/RDTRavtha RoadX  04:52-04:52-  2-142.5 114366mWCRNational Highway 12, Rajasthan
10.22/==/DKQDhani Kasar  04:55-04:55-  2-136.2 114346mWCRKasar Railway Station, Rajasthan
10.23/==/ALNIAlniya  04:58-04:58-  2-130.7 114334mWCRNH 12, Rajasthan
10.24/==/DDVDadhdeviX  05:02-05:02-  2-123.8 114308mWCRNH 12, Rajasthan
10.25/==/DKNTDakaniya Talav (2)  05:05-05:05-  2-117.1 114278mWCRKota, Rajasthan
10.26/==/KTSCKota South Cabin  05:08-05:08-  2-110.7 114256mWCRKota, Rajasthan
11/==/KOTAKota Junction (5)  05:10+1305:20+1310m12-107.898256mWCRKota, Rajasthan
11.1/==/KCCNKota C CabinX  05:21-05:21-  2-106.1 98246mWCRKota, Rajasthan
11.2/==/GQLGurla  05:23-05:23-  2-102.3 98251mWCRSH 33, Rajasthan
11.3/==/GQLWGurla West  05:24-05:24-  2-101.4 98249mWCRGurla, Rajasthan
11.4/==/GQLNGurla North  05:25-05:25-  2-100.3 98248mWCRKota - Lalsot Mega Highway, Rajasthan
11.5/==/GNCNGurla N Cabin  05:25-05:25-  2-99.6 98249mWCRGudla, Rajasthan
11.6/==/KPTNKeshorai Patan  05:28-05:28-  2-94.3 98243mWCRSH 33, Rajasthan
11.7/==/AREArnetha  05:35-05:35-  2-83.4 98239mWCRShreepura, Rajasthan
11.8/==/KPZKapren  05:41-05:41-  2-74.2 98234mWCRKota - Lalsot Mega Highway, Rajasthan
11.9/==/GKBGhataka VaranaX  05:47-05:47-  2-64.1 98232mWCRSH 33, Rajasthan
11.10/==/LBNLaban (2)  05:52-05:52-  2-54.8 98225mWCRBundi, Rajasthan
11.11/==/LKELakheri (3)X  05:57-05:57-  2-47.2 98228mWCRBundi, Rajasthan
11.12/==/IDGIndargarh Sumerganj Mandi (2)X  06:04-06:04-  2-36.2 98247mWCRIndargarh, Rajasthan
11.13/==/AMLIAmli  06:12-06:12-  2-23.2 98233mWCRSawai Madhopur, Rajasthan
11.14/==/RWJRawania Dungar  06:16-06:16-  2-15.5 98266mWCRSawai Madhopur, Rajasthan
11.15/==/KTAKushtala  06:22-06:22-  2-7.1 98283mWCRNH 116, Rajasthan
12/==/SWMSawai Madhopur Junction (4)»  06:26+1606:28+162m120.085266mWCRSawai Madhopur, Rajasthan
12.1/==/SMDCSwai Madhopur d Cabin  06:30-06:30-  23.5 85261mWCRSawai Madhopur, Rajasthan
12.2/==/RNTRanthambhore  06:35-06:35-  210.2 85248mWCRMDR 111, Rajasthan
12.3/==/MXLMokholi  06:42-06:42-  219.4 85242mWCRMDR 111, Rajasthan
12.4/==/MLZMalarna  06:49-06:49-  230.2 85236mWCRSawai Madhopur, Rajasthan
12.5/==/NMDNomoda  06:54-06:54-  237.3 85238mWCRMDR 111, Rajasthan
12.6/==/NNWNarayanpur Tatwara (2)  07:01-07:01-  247.0 85256mWCRSawai Madhopur, Rajasthan
12.7/==/LRULalpur Umri  07:08-07:08-  257.6 85276mWCRSH 1, Rajasthan
12.8/==/GGCGangapur City (3)  07:13-07:13-  263.9 85270mWCRGangapur, Rajasthan
12.9/==/COOChhoti Odai  07:22-07:22-  276.7 85257mWCRSH 25, Rajasthan
12.10/==/PDZPilioda  07:27-07:27-  284.5 85247mWCRSH 1, Rajasthan
12.11/==/KNDPKhandip  07:32-07:32-  290.6 85245mWCRState Highway 1, Rajasthan
12.12/==/SMBJShri Mahabirji (3)XO  07:37-07:37-  298.0 85240mWCRKarauli, Rajasthan
12.13/==/SKDMSikroda MinaX  07:41-07:41-  2103.5 85233mWCRSH 22, Rajasthan
12.14/==/HANHindaun City (2)  07:44-07:44-  2108.2 85230mWCRKarauli, Rajasthan
12.15/==/DNHKDhindora Hukmikhera  07:50-07:50-  2116.5 85223mWCRDhindhora, Rajasthan
12.16/==/FSPFateh Singhpura  07:53-07:53-  2121.4 85223mWCRState Highway 1, Rajasthan
12.17/==/DYDumariya (2)O  08:01-08:01-  2132.1 85211mWCRState Highway 1, Rajasthan
12.18/==/BXNBayana Junction (3)  08:07-08:07-  2141.1 85198mWCRBayana, Rajasthan
12.19/==/SABDSalabadX  08:13-08:13-  2149.0 85192mWCRBayana, Rajasthan
12.20/==/KEVKela Devi  08:15-08:15-  2153.0 85193mWCRBharatpur, Rajasthan
12.21/==/PNGRPingoraX  08:22-08:22-  2162.0 85191mWCRSH 1, Rajasthan
12.22/==/JCUJaicholi  08:25-08:25-  2167.4 85186mWCRSH 1, Rajasthan
12.23/==/SWARSewar  08:30-08:30-  2173.3 85183mWCRBharatpur, Rajasthan
12.24/==/BTEBharatpur Junction (5)X  08:36-08:36-  2183.1 85174mWCRBharatpur, Rajasthan
12.25/==/DUMDhaurmui Jaghina  08:42-08:42-  2191.3 85180mWCRState Highway 33, Rajasthan
12.26/==/RKRRanikund Rarah  08:45-08:45-  2195.4 85176mWCRRarah, Rajasthan
12.27/==/JJAJajan PattiO  08:48-08:48-  2199.3 85181mWCRState Highway 33, Rajasthan
12.28/==/CRGChuraman Nagri  08:53-08:53-  2206.1 85180mWCRSH 33, Rajasthan
12.29/==/MSRPMurhesi Rampur (2)  08:54-08:54-  2207.7 85182mWCRSH 33, Uttar Pradesh
13/==/MTJMathura Junction (10)•  09:00-209:02+42m32216.671179mNCRMathura, Uttar Pradesh
13.1/==/BTSRBhuteshwar (3)XO  09:04-09:04-  2219.3 71181mNCRMathura, Uttar Pradesh
13.2/==/VRBDVrindaban Road (3)X  09:11-09:11-  2226.7 71179mNCRVrindaban, Uttar Pradesh
13.3/==/AJHAjhai (2)X  09:20-09:20-  2237.7 71 NCRAjhai, Uttar Pradesh
13.4/==/CHJChata (4)XO  09:28-09:28-  2247.8 71 NCRChhata, Uttar Pradesh
13.5/==/KSVKosi Kalan (3)X  09:37-09:37-  2258.0 71189mNCRKosi Kalan, Uttar Pradesh
13.6/==/HDLHodal (4)X  09:47-09:47-  2270.3 71191mNCRFaridabad, Haryana
13.7/==/BNCRBanchari (2)  09:53-09:53-  2277.5 71189mNCRNational Highway 2, Haryana
13.8/==/SHLKSholaka (4)  09:56-09:56-  2280.7 71 NCRFaridabad, Haryana
13.9/==/RDERundhi (4)XO  10:05-10:05-  2291.2 71194mNCRRundhi, Haryana
13.10/==/PWLPalwal (8)X  10:13-10:13-  2300.5 71200mNRPalwal, Haryana
13.11/==/ASTAsaoti (5)  10:22-10:22-  2311.8 71203mNRAsaoti, Haryana
13.12/==/PYLAPiyala Block Hut  10:26-10:26-  2315.8 71200mNRLadholi - Shahpur Kalan - Sunped Road, Haryana
13.13/==/BVHBallabgarh (5)X  10:31-10:31-  2321.7 71203mNRFaridabad, Haryana
13.14/==/FDNFaridabad New Town (3)  10:34-10:34-  2325.8 71204mNRFaridabad, Haryana
13.15/==/FDBFaridabad (4)X  10:37-10:37-  2329.8 71206mNRold Faridabad, Haryana
13.16/==/TKDCTughlakabad CabinXO  10:42-10:42-  2335.0 71210mNRFaridabad, Haryana
13.17/==/TKDTuglakabad (2)  10:47-10:47-  2340.8 71213mNRNear Tughlakabad Metro Station, Delhi NCT
13.18/==/TKECTuglakabad East CabinX  10:49-10:49-  2343.8 71214mNROkhla Indl Area II, Delhi NCT
13.19/==/OKAOkhla (4)  10:52-10:52-  2346.9 71221mNRIshwar Nagar Mathura Road, Delhi NCT
14/==/NZMDelhi Hazrat Nizamuddin (7)  10:55+0-42350.5-209mNRNew Delhi 110013, Delhi NCT
Scroll to Top
Scroll to Bottom